Time;durP1;ratioP1;P1;durP2;ratioP2;P2;SDS_P1;SDS_P2;PMS_P1;PMS_P2;Temp;Humidity;BMP_temperature;BMP_pressure;BME280_temperature;BME280_humidity;BME280_pressure;Samples;Min_cycle;Max_cycle;Signal;HPM_P1;HPM_P2
2022/05/09 00:01:17;;;;;;;;;;;;;;;11.28;58.16;102668.22;5015563;28;19960;-57
2022/05/09 00:03:44;;;;;;;;;;;;;;;11.25;58.22;102665.84;5021056;28;20333;-57
2022/05/09 00:06:09;;;;;;;;;;;;;;;11.23;58.72;102665.09;5030662;28;19924;-57
2022/05/09 00:08:34;;;;;;;;;;;;;;;11.21;58.77;102659.06;5018712;28;19939;-57
2022/05/09 00:10:59;;;;;;;;;;;;;;;11.15;58.62;102653.25;5027380;28;19923;-56
2022/05/09 00:13:24;;;;;;;;;;;;;;;11.14;58.20;102654.25;5014821;28;20028;-57
2022/05/09 00:15:50;;;;;;;;;;;;;;;11.13;58.46;102655.19;5015952;28;19948;-57
2022/05/09 00:18:17;;;;;;;;;;;;;;;11.09;58.42;102653.75;5016175;28;19917;-57
2022/05/09 00:20:42;;;;;;;;;;;;;;;11.03;57.89;102647.13;5013372;28;19968;-57
2022/05/09 00:23:07;;;;;;;;;;;;;;;11.00;58.09;102650.00;5019500;28;19920;-57
2022/05/09 00:25:32;;;;;;;;;;;;;;;11.00;58.72;102649.16;5012928;28;20069;-58
2022/05/09 00:27:57;;;;;;;;;;;;;;;10.96;57.81;102648.53;5025074;28;19921;-57
2022/05/09 00:30:22;;;;;;;;;;;;;;;10.94;58.89;102644.31;5013383;28;19947;-57
2022/05/09 00:32:48;;;;;;;;;;;;;;;10.92;58.17;102646.25;5012108;28;19922;-57
2022/05/09 00:35:13;;;;;;;;;;;;;;;10.89;58.83;102642.88;5011330;28;19944;-57
2022/05/09 00:37:38;;;;;;;;;;;;;;;10.87;59.35;102636.81;5015942;28;19921;-57
2022/05/09 00:40:08;;;;;;;;;;;;;;;10.84;59.19;102650.34;5011065;28;20859;-57
2022/05/09 00:42:34;;;;;;;;;;;;;;;10.84;58.54;102647.69;5017040;28;19917;-57
2022/05/09 00:44:59;;;;;;;;;;;;;;;10.75;58.94;102643.09;5014024;28;20368;-57
2022/05/09 00:47:24;;;;;;;;;;;;;;;10.65;59.48;102650.09;5015623;28;19953;-57
2022/05/09 00:49:52;;;;;;;;;;;;;;;10.56;59.44;102647.16;5009216;28;19918;-57
2022/05/09 00:52:20;;;;;;;;;;;;;;;10.46;59.48;102651.47;5010932;28;19913;-57
2022/05/09 00:54:50;;;;;;;;;;;;;;;10.39;60.21;102647.56;5022163;28;19917;-57
2022/05/09 00:57:24;;;;;;;;;;;;;;;10.32;60.49;102640.06;5019712;28;19917;-57
2022/05/09 00:59:50;;;;;;;;;;;;;;;10.30;60.26;102635.81;5015790;28;19917;-57
2022/05/09 01:02:16;;;;;;;;;;;;;;;10.23;60.29;102638.13;5012648;28;19917;-57
2022/05/09 01:04:47;;;;;;;;;;;;;;;10.17;60.69;102643.88;5012385;28;19936;-58
2022/05/09 01:07:12;;;;;;;;;;;;;;;10.11;60.97;102639.03;5017865;28;19918;-57
2022/05/09 01:09:38;;;;;;;;;;;;;;;9.97;61.62;102635.59;5011904;28;19928;-57
2022/05/09 01:12:03;;;;;;;;;;;;;;;9.90;61.32;102635.19;5020205;28;20052;-57
2022/05/09 01:14:30;;;;;;;;;;;;;;;9.86;61.10;102632.88;5010552;28;19929;-56
2022/05/09 01:16:57;;;;;;;;;;;;;;;9.81;62.43;102623.47;5028424;28;19920;-57
2022/05/09 01:19:31;;;;;;;;;;;;;;;9.79;62.43;102617.44;5026541;28;19928;-57
2022/05/09 01:21:58;;;;;;;;;;;;;;;9.73;62.17;102623.19;5009289;28;20037;-57
2022/05/09 01:24:24;;;;;;;;;;;;;;;9.72;61.92;102621.47;5011554;28;19921;-58
2022/05/09 01:26:49;;;;;;;;;;;;;;;9.71;61.39;102624.25;5012209;28;20498;-58
2022/05/09 01:29:20;;;;;;;;;;;;;;;9.72;61.76;102626.78;5007684;28;20004;-58
2022/05/09 01:31:47;;;;;;;;;;;;;;;9.72;61.48;102621.47;5009957;28;19921;-57
2022/05/09 01:34:15;;;;;;;;;;;;;;;9.72;62.01;102625.94;5014297;28;19961;-58
2022/05/09 01:36:40;;;;;;;;;;;;;;;9.69;62.46;102624.34;5012019;28;19917;-57
2022/05/09 01:39:07;;;;;;;;;;;;;;;9.61;63.03;102624.06;5022288;28;20379;-57
2022/05/09 01:41:37;;;;;;;;;;;;;;;9.54;63.21;102619.19;5006391;28;20241;-57
2022/05/09 01:44:03;;;;;;;;;;;;;;;9.48;62.47;102619.63;5015648;28;19964;-57
2022/05/09 01:46:29;;;;;;;;;;;;;;;9.46;62.71;102618.91;5013872;28;19929;-58
2022/05/09 01:51:39;;;;;;;;;;;;;;;9.34;62.84;102611.84;5015394;28;20367;-57
2022/05/09 01:54:05;;;;;;;;;;;;;;;9.36;62.92;102620.53;5011305;28;20352;-58
2022/05/09 01:56:31;;;;;;;;;;;;;;;9.35;62.97;102618.84;5010345;28;19924;-57
2022/05/09 01:58:57;;;;;;;;;;;;;;;9.34;62.67;102619.78;5010090;28;19917;-58
2022/05/09 02:01:23;;;;;;;;;;;;;;;9.31;62.75;102618.22;5017998;28;20005;-57
2022/05/09 02:03:49;;;;;;;;;;;;;;;9.25;63.23;102614.22;5022208;28;20004;-57
2022/05/09 02:06:15;;;;;;;;;;;;;;;9.21;62.66;102620.66;5019958;28;19917;-56
2022/05/09 02:08:40;;;;;;;;;;;;;;;9.17;63.33;102621.81;5016162;28;20287;-57
2022/05/09 02:11:06;;;;;;;;;;;;;;;9.13;62.91;102615.06;5016693;28;20348;-58
2022/05/09 02:13:31;;;;;;;;;;;;;;;9.11;63.27;102622.25;5016377;28;19943;-57
2022/05/09 02:15:57;;;;;;;;;;;;;;;9.06;63.64;102624.38;5012876;28;19917;-58
2022/05/09 02:18:22;;;;;;;;;;;;;;;8.99;63.17;102616.88;5013967;28;19921;-57
2022/05/09 02:20:47;;;;;;;;;;;;;;;8.96;63.71;102609.16;5013667;28;19928;-57
2022/05/09 02:23:13;;;;;;;;;;;;;;;8.95;63.47;102610.13;5019563;28;20008;-57
2022/05/09 02:25:39;;;;;;;;;;;;;;;8.96;63.19;102609.16;5012488;28;19933;-57
2022/05/09 02:28:09;;;;;;;;;;;;;;;8.98;63.08;102607.25;5013356;28;19917;-57
2022/05/09 02:30:34;;;;;;;;;;;;;;;8.98;63.52;102604.59;5004162;28;19928;-57
2022/05/09 02:32:59;;;;;;;;;;;;;;;9.02;64.07;102608.72;5012304;28;20406;-57
2022/05/09 02:35:24;;;;;;;;;;;;;;;8.94;63.86;102610.22;5011097;28;19917;-57
2022/05/09 02:37:52;;;;;;;;;;;;;;;8.87;63.93;102601.84;5009525;28;19970;-58
2022/05/09 02:40:18;;;;;;;;;;;;;;;8.87;63.75;102609.78;5013553;28;19918;-58
2022/05/09 02:42:44;;;;;;;;;;;;;;;8.84;64.08;102607.38;5019497;28;20004;-57
2022/05/09 02:45:09;;;;;;;;;;;;;;;8.85;63.95;102606.41;5007303;28;20498;-57
2022/05/09 02:47:34;;;;;;;;;;;;;;;8.81;64.00;102611.06;5013500;28;20799;-57
2022/05/09 02:50:00;;;;;;;;;;;;;;;8.79;64.23;102602.38;5014251;28;19963;-57
2022/05/09 02:52:25;;;;;;;;;;;;;;;8.74;64.19;102605.34;5015175;28;19920;-57
2022/05/09 02:54:50;;;;;;;;;;;;;;;8.71;64.82;102604.72;5014820;28;20000;-57
2022/05/09 02:57:15;;;;;;;;;;;;;;;8.63;64.79;102605.22;5013167;28;20364;-58
2022/05/09 02:59:40;;;;;;;;;;;;;;;8.54;65.67;102608.53;5013459;28;20023;-57
2022/05/09 03:02:07;;;;;;;;;;;;;;;8.42;65.56;102604.88;5014447;28;19929;-57
2022/05/09 03:04:41;;;;;;;;;;;;;;;8.34;66.02;102600.13;5015073;28;19975;-57
2022/05/09 03:07:07;;;;;;;;;;;;;;;8.27;65.88;102598.81;5014371;28;19913;-57
2022/05/09 03:09:33;;;;;;;;;;;;;;;8.21;65.86;102598.28;5013691;28;19964;-57
2022/05/09 03:11:58;;;;;;;;;;;;;;;8.23;65.14;102594.69;5015516;28;19998;-58
2022/05/09 03:14:23;;;;;;;;;;;;;;;8.20;65.42;102596.56;5017391;28;19964;-57
2022/05/09 03:16:48;;;;;;;;;;;;;;;8.18;65.59;102593.19;5008448;28;19921;-57
2022/05/09 03:19:13;;;;;;;;;;;;;;;8.17;65.44;102591.50;5012767;28;19996;-57
2022/05/09 03:21:39;;;;;;;;;;;;;;;8.13;66.52;102595.31;5014572;28;19917;-57
2022/05/09 03:24:04;;;;;;;;;;;;;;;8.09;65.54;102591.16;5023449;28;19918;-57
2022/05/09 03:26:29;;;;;;;;;;;;;;;8.09;65.38;102593.81;5017585;28;20343;-57
2022/05/09 03:28:55;;;;;;;;;;;;;;;8.08;65.49;102592.13;5012678;28;19961;-57
2022/05/09 03:31:20;;;;;;;;;;;;;;;8.10;65.89;102592.88;5012770;28;20837;-57
2022/05/09 03:33:45;;;;;;;;;;;;;;;8.08;65.39;102582.41;5013266;28;19913;-57
2022/05/09 03:36:11;;;;;;;;;;;;;;;8.08;66.04;102584.19;5014165;28;20257;-57
2022/05/09 03:38:37;;;;;;;;;;;;;;;8.08;66.12;102584.19;5010961;28;19918;-57
2022/05/09 03:41:02;;;;;;;;;;;;;;;8.08;66.11;102581.53;5010942;28;20245;-57
2022/05/09 03:43:28;;;;;;;;;;;;;;;8.06;66.28;102578.16;5019345;28;19920;-57
2022/05/09 03:45:55;;;;;;;;;;;;;;;8.06;65.92;102583.44;5010213;28;19917;-58
2022/05/09 03:48:20;;;;;;;;;;;;;;;8.05;66.21;102581.75;5013346;28;19918;-57
2022/05/09 03:50:45;;;;;;;;;;;;;;;8.03;66.00;102575.72;5012725;28;19917;-58
2022/05/09 03:53:11;;;;;;;;;;;;;;;8.00;66.24;102574.13;5016989;28;19917;-57
2022/05/09 03:55:36;;;;;;;;;;;;;;;7.99;66.01;102582.16;5015316;28;19917;-57
2022/05/09 03:58:02;;;;;;;;;;;;;;;7.97;66.37;102582.25;5012864;28;20015;-57
2022/05/09 04:00:28;;;;;;;;;;;;;;;7.94;66.20;102579.81;5011352;28;20580;-57
2022/05/09 04:02:53;;;;;;;;;;;;;;;7.93;66.09;102581.63;5009671;28;19913;-57
2022/05/09 04:05:19;;;;;;;;;;;;;;;7.93;65.85;102584.25;5014441;28;19917;-58
2022/05/09 04:07:46;;;;;;;;;;;;;;;7.98;66.36;102580.47;5014275;28;19961;-57
2022/05/09 04:10:13;;;;;;;;;;;;;;;7.98;66.10;102585.75;5012967;28;20379;-57
2022/05/09 04:12:39;;;;;;;;;;;;;;;7.96;66.66;102582.34;5013046;28;20363;-57
2022/05/09 04:17:48;;;;;;;;;;;;;;;7.94;66.62;102580.66;5007013;28;19924;-57
2022/05/09 04:20:13;;;;;;;;;;;;;;;7.88;67.00;102581.06;5013294;28;19913;-57
2022/05/09 04:22:40;;;;;;;;;;;;;;;7.80;66.67;102580.75;5013282;28;19979;-57
2022/05/09 04:25:05;;;;;;;;;;;;;;;7.79;66.67;102576.38;5012723;28;19963;-58
2022/05/09 04:27:32;;;;;;;;;;;;;;;7.79;67.30;102577.22;5012549;28;19917;-57
2022/05/09 04:29:58;;;;;;;;;;;;;;;7.80;67.13;102572.81;5008487;28;19914;-57
2022/05/09 04:32:24;;;;;;;;;;;;;;;7.80;66.54;102572.81;5012441;28;20272;-57
2022/05/09 04:34:49;;;;;;;;;;;;;;;7.81;67.46;102575.34;5018747;28;19921;-57
2022/05/09 04:37:14;;;;;;;;;;;;;;;7.81;66.71;102572.69;5013218;28;20287;-57
2022/05/09 04:39:39;;;;;;;;;;;;;;;7.83;67.32;102572.59;5013621;28;19918;-57
2022/05/09 04:42:04;;;;;;;;;;;;;;;7.83;66.53;102564.69;5015631;28;20360;-57
2022/05/09 04:44:30;;;;;;;;;;;;;;;7.88;66.70;102569.66;5013219;28;19925;-57
2022/05/09 04:46:55;;;;;;;;;;;;;;;7.91;66.85;102575.56;5015547;28;19924;-57
2022/05/09 04:49:20;;;;;;;;;;;;;;;7.96;66.76;102571.78;5010520;28;20018;-57
2022/05/09 04:51:45;;;;;;;;;;;;;;;8.02;67.03;102574.88;5022416;28;19913;-57
2022/05/09 04:54:10;;;;;;;;;;;;;;;8.04;66.99;102565.06;5011529;28;20393;-57
2022/05/09 04:56:36;;;;;;;;;;;;;;;8.09;66.76;102564.72;5012416;28;19914;-57
2022/05/09 04:59:01;;;;;;;;;;;;;;;8.12;66.79;102567.19;5011238;28;19917;-57
2022/05/09 05:01:26;;;;;;;;;;;;;;;8.13;66.75;102566.22;5015835;28;19926;-57
2022/05/09 05:03:51;;;;;;;;;;;;;;;8.18;66.97;102564.13;5022177;28;20331;-57
2022/05/09 05:06:16;;;;;;;;;;;;;;;8.25;66.90;102558.44;5000003;28;20283;-56
2022/05/09 05:08:42;;;;;;;;;;;;;;;8.27;66.94;102556.53;5001619;28;20032;-56
2022/05/09 05:11:07;;;;;;;;;;;;;;;8.31;66.90;102555.38;5011030;28;19921;-57
2022/05/09 05:13:35;;;;;;;;;;;;;;;8.33;67.01;102553.47;5015334;28;20404;-57
2022/05/09 05:16:00;;;;;;;;;;;;;;;8.35;66.98;102556.88;5020467;28;19922;-56
2022/05/09 05:18:27;;;;;;;;;;;;;;;8.41;66.86;102566.16;4998783;28;20330;-57
2022/05/09 05:20:54;;;;;;;;;;;;;;;8.44;66.73;102561.50;5003712;28;20604;-57
2022/05/09 05:23:19;;;;;;;;;;;;;;;8.51;66.89;102561.09;4999689;28;20495;-57
2022/05/09 05:25:45;;;;;;;;;;;;;;;8.55;67.14;102562.63;5002307;28;20055;-58
2022/05/09 05:28:11;;;;;;;;;;;;;;;8.57;66.53;102560.69;5005119;28;19936;-57
2022/05/09 05:30:37;;;;;;;;;;;;;;;8.62;66.77;102574.47;5009555;28;20272;-57
2022/05/09 05:33:04;;;;;;;;;;;;;;;8.63;67.08;102570.84;5020302;28;19921;-57
2022/05/09 05:35:29;;;;;;;;;;;;;;;8.68;66.96;102566.09;5006345;28;20368;-57
2022/05/09 05:37:55;;;;;;;;;;;;;;;8.72;67.11;102570.22;5002729;28;19922;-57
2022/05/09 05:40:20;;;;;;;;;;;;;;;8.78;68.07;102573.41;5011716;28;19917;-57
2022/05/09 05:42:47;;;;;;;;;;;;;;;8.79;67.03;102569.81;5007334;28;20416;-57
2022/05/09 05:45:13;;;;;;;;;;;;;;;8.86;67.49;102571.06;5006792;28;20020;-57
2022/05/09 05:47:39;;;;;;;;;;;;;;;8.90;66.54;102559.31;5005724;28;20007;-57
2022/05/09 05:50:05;;;;;;;;;;;;;;;8.97;68.35;102559.72;5005019;28;19918;-57
2022/05/09 05:52:31;;;;;;;;;;;;;;;9.01;66.51;102564.72;5014623;28;19921;-57
2022/05/09 05:54:56;;;;;;;;;;;;;;;9.07;67.13;102562.59;5011358;28;19918;-57
2022/05/09 05:57:24;;;;;;;;;;;;;;;9.16;66.94;102561.91;5015889;28;19988;-57
2022/05/09 05:59:50;;;;;;;;;;;;;;;9.26;67.00;102573.53;5008885;28;19936;-57
2022/05/09 06:02:16;;;;;;;;;;;;;;;9.32;66.69;102572.25;5016723;28;19976;-57
2022/05/09 06:04:41;;;;;;;;;;;;;;;9.43;66.53;102563.53;5029626;28;20306;-57
2022/05/09 06:07:06;;;;;;;;;;;;;;;9.50;66.84;102564.78;5025981;28;19937;-57
2022/05/09 06:09:31;;;;;;;;;;;;;;;9.60;66.07;102558.78;5015593;28;19917;-57
2022/05/09 06:11:56;;;;;;;;;;;;;;;9.70;67.36;102559.81;5019305;28;19948;-56
2022/05/09 06:14:22;;;;;;;;;;;;;;;9.78;66.67;102562.72;5029010;28;19924;-56
2022/05/09 06:16:47;;;;;;;;;;;;;;;9.86;66.42;102564.00;5021337;28;19917;-57
2022/05/09 06:19:12;;;;;;;;;;;;;;;9.96;65.73;102559.69;5025535;28;19943;-57
2022/05/09 06:21:37;;;;;;;;;;;;;;;10.11;65.73;102562.97;5014372;28;19917;-57
2022/05/09 06:24:04;;;;;;;;;;;;;;;10.19;65.66;102559.75;5023425;28;20264;-57
2022/05/09 06:26:29;;;;;;;;;;;;;;;10.26;65.55;102565.44;5018535;28;19925;-57
2022/05/09 06:28:54;;;;;;;;;;;;;;;10.33;65.08;102567.53;5019512;28;19962;-57
2022/05/09 06:31:20;;;;;;;;;;;;;;;10.45;65.15;102564.91;5022649;28;19917;-57
2022/05/09 06:33:46;;;;;;;;;;;;;;;10.49;64.25;102558.41;5019373;28;20291;-57
2022/05/09 06:36:11;;;;;;;;;;;;;;;10.59;64.19;102566.50;5017787;28;19921;-57
2022/05/09 06:38:36;;;;;;;;;;;;;;;10.71;64.36;102560.22;5023463;28;19921;-57
2022/05/09 06:41:01;;;;;;;;;;;;;;;10.83;64.14;102560.22;5018751;28;19953;-57
2022/05/09 06:43:27;;;;;;;;;;;;;;;10.90;64.65;102556.97;5016951;28;20007;-57
2022/05/09 06:45:53;;;;;;;;;;;;;;;10.99;63.99;102552.75;5013481;28;20332;-57
2022/05/09 06:48:18;;;;;;;;;;;;;;;11.11;64.11;102544.78;5015241;28;19976;-57
2022/05/09 06:50:43;;;;;;;;;;;;;;;11.21;63.48;102550.19;5013143;28;19964;-57
2022/05/09 06:53:10;;;;;;;;;;;;;;;11.29;63.41;102550.41;5019409;28;19917;-57
2022/05/09 06:55:35;;;;;;;;;;;;;;;11.37;62.84;102548.00;5020769;28;20391;-58
2022/05/09 06:58:04;;;;;;;;;;;;;;;11.46;63.54;102543.75;5005541;28;19949;-57
2022/05/09 07:00:29;;;;;;;;;;;;;;;11.57;62.99;102550.81;5014803;28;19925;-57
2022/05/09 07:02:54;;;;;;;;;;;;;;;11.67;62.73;102545.59;5008979;28;19918;-57
2022/05/09 07:05:20;;;;;;;;;;;;;;;11.78;62.57;102552.66;5014672;28;19913;-57
2022/05/09 07:07:47;;;;;;;;;;;;;;;11.89;62.67;102549.97;5014663;28;19914;-57
2022/05/09 07:10:13;;;;;;;;;;;;;;;12.00;62.65;102546.44;5013611;28;19918;-57
2022/05/09 07:12:42;;;;;;;;;;;;;;;12.06;61.99;102545.94;5017851;28;20015;-58
2022/05/09 07:15:07;;;;;;;;;;;;;;;12.16;61.85;102551.31;5035943;28;19918;-57
2022/05/09 07:17:32;;;;;;;;;;;;;;;12.27;62.34;102546.88;5016896;28;20421;-57
2022/05/09 07:19:57;;;;;;;;;;;;;;;12.37;62.23;102547.78;5013731;28;19928;-57
2022/05/09 07:22:22;;;;;;;;;;;;;;;12.44;61.44;102543.63;5014244;28;19914;-58
2022/05/09 07:24:48;;;;;;;;;;;;;;;12.53;61.23;102541.16;5023074;28;19928;-57
2022/05/09 07:27:13;;;;;;;;;;;;;;;12.61;61.38;102544.00;5014409;28;20287;-57
2022/05/09 07:29:38;;;;;;;;;;;;;;;12.67;61.31;102546.13;5015551;28;19926;-57
2022/05/09 07:32:03;;;;;;;;;;;;;;;12.76;61.38;102548.00;5019818;28;19917;-57
2022/05/09 07:34:29;;;;;;;;;;;;;;;12.83;61.27;102552.78;5025350;28;19918;-57
2022/05/09 07:36:54;;;;;;;;;;;;;;;12.89;61.49;102546.91;5012675;28;19940;-57
2022/05/09 07:39:19;;;;;;;;;;;;;;;12.98;60.63;102546.09;5013131;28;19952;-59
2022/05/09 07:41:44;;;;;;;;;;;;;;;13.09;59.72;102542.50;5018672;28;19944;-58
2022/05/09 07:44:09;;;;;;;;;;;;;;;13.19;60.10;102548.66;5014633;28;19917;-58
2022/05/09 07:46:34;;;;;;;;;;;;;;;13.31;59.60;102552.06;5012994;28;19917;-59
2022/05/09 07:49:00;;;;;;;;;;;;;;;13.45;59.89;102542.00;5013587;28;20389;-58
2022/05/09 07:51:25;;;;;;;;;;;;;;;13.57;59.18;102550.75;5011920;28;19918;-57
2022/05/09 07:53:51;;;;;;;;;;;;;;;13.67;59.80;102540.91;5015138;28;19960;-57
2022/05/09 07:56:16;;;;;;;;;;;;;;;13.80;57.74;102540.63;5018655;28;19918;-58
2022/05/09 07:58:42;;;;;;;;;;;;;;;13.93;59.16;102547.50;5010702;28;19921;-57
2022/05/09 08:01:07;;;;;;;;;;;;;;;14.03;59.15;102539.47;5002498;28;20295;-57
2022/05/09 08:03:34;;;;;;;;;;;;;;;14.10;58.98;102541.44;5011370;28;19917;-58
2022/05/09 08:06:02;;;;;;;;;;;;;;;14.21;57.12;102537.75;5011162;28;19963;-58
2022/05/09 08:08:28;;;;;;;;;;;;;;;14.29;56.75;102544.19;5008737;28;19917;-58
2022/05/09 08:10:55;;;;;;;;;;;;;;;14.39;57.06;102539.69;5002190;28;19917;-58
2022/05/09 08:13:20;;;;;;;;;;;;;;;14.50;57.96;102544.84;5010208;28;19917;-58
2022/05/09 08:15:46;;;;;;;;;;;;;;;14.60;57.59;102546.66;5001099;28;20379;-58
2022/05/09 08:18:21;;;;;;;;;;;;;;;14.69;58.45;102539.59;5049801;28;19920;-56
2022/05/09 08:20:47;;;;;;;;;;;;;;;14.79;58.21;102540.41;5042064;28;19921;-56
2022/05/09 08:23:16;;;;;;;;;;;;;;;14.87;57.14;102540.53;5038588;28;19952;-56
2022/05/09 08:25:42;;;;;;;;;;;;;;;14.97;56.97;102539.63;5037278;28;19922;-56
2022/05/09 08:28:08;;;;;;;;;;;;;;;15.08;57.05;102539.41;5040522;28;19983;-57
2022/05/09 08:30:34;;;;;;;;;;;;;;;15.24;55.33;102532.59;5038921;28;19928;-56
2022/05/09 08:33:00;;;;;;;;;;;;;;;15.13;56.49;102534.47;5042689;28;19921;-57
2022/05/09 08:35:27;;;;;;;;;;;;;;;15.23;56.82;102533.56;5033779;28;19922;-56
2022/05/09 08:37:52;;;;;;;;;;;;;;;15.37;56.50;102535.72;5039119;28;19967;-57
2022/05/09 08:40:20;;;;;;;;;;;;;;;15.45;56.20;102535.78;5036324;28;19921;-58
2022/05/09 08:42:57;;;;;;;;;;;;;;;15.58;56.13;102539.91;5037619;28;19926;-56
2022/05/09 08:45:22;;;;;;;;;;;;;;;15.69;55.49;102536.19;5039924;28;20463;-55
2022/05/09 08:47:57;;;;;;;;;;;;;;;15.76;55.97;102539.91;5039245;28;19929;-57
2022/05/09 08:50:41;;;;;;;;;;;;;;;15.86;54.95;102537.16;5037904;28;19920;-57
2022/05/09 08:53:08;;;;;;;;;;;;;;;15.91;54.01;102534.84;5044006;28;19928;-56
2022/05/09 08:55:37;;;;;;;;;;;;;;;16.04;55.50;102536.31;5045541;28;20359;-56
2022/05/09 08:58:03;;;;;;;;;;;;;;;16.15;54.76;102533.38;5045059;28;19932;-56
2022/05/09 09:00:30;;;;;;;;;;;;;;;16.24;55.19;102535.09;5045908;28;20232;-57
2022/05/09 09:02:59;;;;;;;;;;;;;;;16.35;53.39;102530.47;5044302;28;19921;-56
2022/05/09 09:05:25;;;;;;;;;;;;;;;16.48;53.75;102525.53;5044052;28;19929;-57
2022/05/09 09:08:00;;;;;;;;;;;;;;;16.61;53.57;102524.25;5046945;28;19924;-57
2022/05/09 09:10:43;;;;;;;;;;;;;;;16.69;51.38;102518.94;5047749;28;20413;-57
2022/05/09 09:13:19;;;;;;;;;;;;;;;16.76;52.98;102514.63;5041450;28;19921;-57
2022/05/09 09:15:44;;;;;;;;;;;;;;;16.83;52.71;102506.78;5043344;28;20316;-56
2022/05/09 09:18:10;;;;;;;;;;;;;;;16.96;52.70;102522.38;5060735;28;19968;-56
2022/05/09 09:20:54;;;;;;;;;;;;;;;17.09;50.98;102508.53;5065992;28;19974;-56
2022/05/09 09:23:35;;;;;;;;;;;;;;;17.10;51.80;102501.31;5064918;28;19921;-57
2022/05/09 09:26:09;;;;;;;;;;;;;;;17.21;50.01;102504.53;5064598;28;20007;-57
2022/05/09 09:28:47;;;;;;;;;;;;;;;17.26;50.39;102516.63;5058432;28;19928;-56
2022/05/09 09:31:13;;;;;;;;;;;;;;;17.33;48.89;102510.41;5046400;28;19925;-56
2022/05/09 09:33:44;;;;;;;;;;;;;;;17.38;48.76;102511.78;5052144;28;19928;-56
2022/05/09 09:36:12;;;;;;;;;;;;;;;17.39;48.18;102505.41;5052668;28;19927;-57
2022/05/09 09:38:40;;;;;;;;;;;;;;;17.65;46.73;102499.88;5049341;28;19930;-56
2022/05/09 09:41:23;;;;;;;;;;;;;;;17.56;48.02;102501.72;5050219;28;19928;-56
2022/05/09 09:43:49;;;;;;;;;;;;;;;17.56;49.14;102501.72;5053407;28;19921;-56
2022/05/09 09:46:14;;;;;;;;;;;;;;;17.69;48.46;102500.38;5050614;28;19921;-57
2022/05/09 09:48:39;;;;;;;;;;;;;;;17.76;49.62;102496.00;5053234;28;19921;-57
2022/05/09 09:51:15;;;;;;;;;;;;;;;17.88;49.85;102500.00;5052667;28;20283;-58
2022/05/09 09:53:57;;;;;;;;;;;;;;;17.98;48.82;102493.63;5048068;28;19924;-58
2022/05/09 09:56:22;;;;;;;;;;;;;;;18.07;49.54;102492.66;5045288;28;19916;-58
2022/05/09 09:58:58;;;;;;;;;;;;;;;18.16;47.09;102490.78;5048831;28;19936;-59
2022/05/09 10:01:23;;;;;;;;;;;;;;;18.24;48.80;102488.06;5045290;28;19975;-58
2022/05/09 10:04:03;;;;;;;;;;;;;;;18.26;48.31;102480.69;5044124;28;19920;-59
2022/05/09 10:06:28;;;;;;;;;;;;;;;18.31;48.34;102471.28;5042931;28;19928;-59
2022/05/09 10:08:58;;;;;;;;;;;;;;;18.38;48.32;102478.47;5051018;28;19966;-58
2022/05/09 10:11:24;;;;;;;;;;;;;;;18.55;46.16;102467.63;5033570;28;19925;-59
2022/05/09 10:13:51;;;;;;;;;;;;;;;18.65;44.39;102462.88;5031767;28;19935;-58
2022/05/09 10:16:25;;;;;;;;;;;;;;;18.47;44.36;102465.00;5040896;28;19952;-59
2022/05/09 10:18:51;;;;;;;;;;;;;;;18.51;45.51;102461.78;5043516;28;19932;-58
2022/05/09 10:24:47;;;;;;;;;;;;;;;18.60;45.34;102459.06;5045859;28;19970;-59
2022/05/09 10:26:52;;;;;;;;;;;;;;;18.72;45.35;102456.81;5050251;28;20716;-59
2022/05/09 10:29:17;;;;;;;;;;;;;;;18.90;44.78;102438.56;5049760;28;19936;-58
2022/05/09 10:31:52;;;;;;;;;;;;;;;18.89;45.40;102447.63;5047718;28;20011;-58
2022/05/09 10:34:27;;;;;;;;;;;;;;;18.98;45.89;102444.91;5045583;28;19921;-58
2022/05/09 10:36:56;;;;;;;;;;;;;;;19.07;44.58;102439.34;5044628;28;20371;-58
2022/05/09 10:39:26;;;;;;;;;;;;;;;19.15;44.65;102440.28;5045982;28;20011;-59
2022/05/09 10:42:00;;;;;;;;;;;;;;;19.22;40.88;102431.31;5048877;28;19921;-58
2022/05/09 10:44:28;;;;;;;;;;;;;;;19.35;41.97;102440.63;5043650;28;20008;-59
2022/05/09 10:46:59;;;;;;;;;;;;;;;19.43;42.52;102435.16;5042669;28;20376;-59
2022/05/09 10:49:24;;;;;;;;;;;;;;;19.51;43.14;102438.78;5041329;28;19929;-59
2022/05/09 10:51:52;;;;;;;;;;;;;;;19.55;40.59;102434.72;5048567;28;19943;-58
2022/05/09 10:54:21;;;;;;;;;;;;;;;19.57;43.83;102433.53;5050946;28;19960;-59
2022/05/09 10:56:50;;;;;;;;;;;;;;;19.71;43.51;102428.34;5047576;28;19921;-58
2022/05/09 10:59:25;;;;;;;;;;;;;;;19.84;44.18;102425.84;5042996;28;19924;-59
2022/05/09 11:01:56;;;;;;;;;;;;;;;20.00;43.19;102426.72;5051658;28;19929;-59
2022/05/09 11:04:22;;;;;;;;;;;;;;;20.10;43.01;102431.81;5045922;28;20236;-58
2022/05/09 11:06:47;;;;;;;;;;;;;;;20.12;43.34;102424.38;5045041;28;19976;-58
2022/05/09 11:09:23;;;;;;;;;;;;;;;20.23;42.94;102415.84;5048971;28;20440;-58
2022/05/09 11:11:57;;;;;;;;;;;;;;;20.33;42.16;102420.09;5045483;28;20287;-62
2022/05/09 11:14:41;;;;;;;;;;;;;;;20.31;40.77;102419.47;5043907;28;19924;-58
2022/05/09 11:17:15;;;;;;;;;;;;;;;20.36;42.02;102419.72;5050477;28;20511;-58
2022/05/09 11:19:40;;;;;;;;;;;;;;;20.32;42.23;102421.13;5051101;28;20256;-57
2022/05/09 11:22:08;;;;;;;;;;;;;;;20.37;42.24;102410.63;5052677;28;20367;-59
2022/05/09 11:24:46;;;;;;;;;;;;;;;20.43;41.96;102399.91;5051740;28;19921;-59
2022/05/09 11:27:11;;;;;;;;;;;;;;;20.47;41.74;102400.38;5049742;28;19931;-60
2022/05/09 11:29:56;;;;;;;;;;;;;;;20.65;40.90;102393.72;5048690;28;19924;-58
2022/05/09 11:32:38;;;;;;;;;;;;;;;20.61;41.19;102389.75;5040771;28;20310;-58
2022/05/09 11:35:22;;;;;;;;;;;;;;;20.61;41.96;102387.88;5049938;28;19921;-57
2022/05/09 11:37:50;;;;;;;;;;;;;;;20.64;41.75;102382.13;5049438;28;19925;-57
2022/05/09 11:40:44;;;;;;;;;;;;;;;20.68;41.89;102385.25;5045225;28;20000;-56
2022/05/09 11:43:28;;;;;;;;;;;;;;;20.77;40.78;102378.69;5028895;28;20006;-57
2022/05/09 11:46:02;;;;;;;;;;;;;;;20.73;41.17;102377.44;5049169;28;19959;-57
2022/05/09 11:48:27;;;;;;;;;;;;;;;;;;5047634;28;19921;-57
2022/05/09 11:51:11;;;;;;;;;;;;;;;20.83;41.45;102371.72;5047476;28;19936;-57
2022/05/09 11:53:39;;;;;;;;;;;;;;;20.94;41.47;102378.47;5050542;28;19920;-57
2022/05/09 11:56:05;;;;;;;;;;;;;;;21.04;40.78;102362.81;5043725;28;20321;-56
2022/05/09 11:58:36;;;;;;;;;;;;;;;21.18;40.15;102363.75;5051143;28;19925;-58
2022/05/09 12:01:01;;;;;;;;;;;;;;;21.20;40.50;102360.84;5051419;28;19939;-57
2022/05/09 12:03:39;;;;;;;;;;;;;;;21.18;39.84;102352.13;5051169;28;20341;-57
2022/05/09 12:06:05;;;;;;;;;;;;;;;21.28;40.58;102355.31;5050900;28;19924;-57
2022/05/09 12:08:44;;;;;;;;;;;;;;;21.40;40.62;102354.78;5045846;28;19936;-59
2022/05/09 12:11:29;;;;;;;;;;;;;;;21.51;40.70;102351.50;5050280;28;19928;-59
2022/05/09 12:13:55;;;;;;;;;;;;;;;21.63;40.31;102349.94;5051581;28;19921;-59
2022/05/09 12:16:35;;;;;;;;;;;;;;;21.60;40.77;102349.47;5049224;28;19921;-60
2022/05/09 12:19:05;;;;;;;;;;;;;;;21.67;40.95;102357.63;5041739;28;20197;-59
2022/05/09 12:21:37;;;;;;;;;;;;;;;21.79;40.44;102337.16;5044204;28;19940;-60
2022/05/09 12:24:14;;;;;;;;;;;;;;;21.89;40.26;102348.44;5041473;28;19999;-59
2022/05/09 12:26:40;;;;;;;;;;;;;;;22.01;39.32;102337.88;5050997;28;19928;-59
2022/05/09 12:29:27;;;;;;;;;;;;;;;22.08;39.61;102337.06;5050545;28;19924;-60
2022/05/09 12:32:00;;;;;;;;;;;;;;;22.35;37.45;102329.88;5046056;28;19928;-60
2022/05/09 12:34:37;;;;;;;;;;;;;;;22.11;38.63;102329.38;5047321;28;20379;-59
2022/05/09 12:37:02;;;;;;;;;;;;;;;22.12;38.31;102327.53;5025122;28;19928;-59
2022/05/09 12:39:36;;;;;;;;;;;;;;;22.13;38.34;102326.50;5044077;28;19921;-60
2022/05/09 12:42:05;;;;;;;;;;;;;;;22.23;38.17;102326.94;5041910;28;19931;-60
2022/05/09 12:44:48;;;;;;;;;;;;;;;22.30;38.85;102326.97;5047696;28;19920;-60
2022/05/09 12:47:16;;;;;;;;;;;;;;;22.35;36.95;102313.66;5044016;28;19920;-59
2022/05/09 12:49:44;;;;;;;;;;;;;;;22.34;38.11;102308.47;5044305;28;20077;-59
2022/05/09 12:52:10;;;;;;;;;;;;;;;22.51;37.45;102308.91;5041122;28;20387;-59